Time;durP1;ratioP1;P1;durP2;ratioP2;P2;SDS_P1;SDS_P2;PMS_P1;PMS_P2;Temp;Humidity;BMP_temperature;BMP_pressure;BME280_temperature;BME280_humidity;BME280_pressure;Samples;Min_cycle;Max_cycle;Signal;HPM_P1;HPM_P2
2022/01/30 00:00:56;;;;;;;30.13;5.38;;;6.30;99.90;;;;;;5002480;28;20057;-48
2022/01/30 00:03:22;;;;;;;28.88;5.00;;;6.40;99.90;;;;;;5003553;28;20651;-47
2022/01/30 00:14:54;;;;;;;23.02;5.68;;;6.10;99.90;;;;;;4972402;28;20070;-48
2022/01/30 00:17:34;;;;;;;23.60;5.03;;;6.00;99.90;;;;;;4984659;28;20050;-47
2022/01/30 00:20:04;;;;;;;25.38;5.70;;;5.80;99.90;;;;;;4982615;28;20429;-49
2022/01/30 00:25:01;;;;;;;25.85;5.90;;;5.70;99.90;;;;;;4983247;28;20054;-47
2022/01/30 00:27:31;;;;;;;21.85;4.25;;;5.70;99.90;;;;;;4982154;28;20046;-48
2022/01/30 00:29:57;;;;;;;19.67;4.85;;;5.70;99.90;;;;;;4984266;28;20054;-50
2022/01/30 00:32:23;;;;;;;23.63;7.60;;;5.70;99.90;;;;;;4984465;28;20053;-47
2022/01/30 00:34:49;;;;;;;23.80;4.47;;;5.70;99.90;;;;;;4969692;28;20050;-55
2022/01/30 00:37:15;;;;;;;25.38;4.72;;;5.80;99.90;;;;;;4965389;28;20051;-47
2022/01/30 00:39:41;;;;;;;24.45;4.40;;;5.90;99.90;;;;;;4964441;28;20054;-47
2022/01/30 00:42:07;;;;;;;18.73;4.32;;;5.80;99.90;;;;;;4963056;28;20494;-47
2022/01/30 00:44:33;;;;;;;25.73;5.53;;;5.80;99.90;;;;;;4962519;28;20513;-51
2022/01/30 00:47:01;;;;;;;19.80;4.13;;;5.70;99.90;;;;;;4963535;28;20082;-47
2022/01/30 00:49:27;;;;;;;28.88;6.28;;;5.70;99.90;;;;;;4976309;28;20602;-48
2022/01/30 00:51:53;;;;;;;20.17;4.03;;;5.60;99.90;;;;;;4980554;28;20043;-48
2022/01/30 00:54:18;;;;;;;21.40;5.05;;;5.50;99.90;;;;;;4979786;28;20066;-47
2022/01/30 00:56:44;;;;;;;16.25;3.95;;;5.50;99.90;;;;;;4982636;28;20093;-47
2022/01/30 00:59:10;;;;;;;16.45;3.75;;;5.40;99.90;;;;;;4982227;28;20057;-49
2022/01/30 01:01:36;;;;;;;16.73;3.70;;;5.40;99.90;;;;;;4982881;28;20060;-47
2022/01/30 01:04:02;;;;;;;15.27;3.17;;;5.40;99.90;;;;;;4979138;28;20050;-50
2022/01/30 01:06:27;;;;;;;19.20;3.08;;;5.40;99.90;;;;;;4982244;28;20378;-49
2022/01/30 01:09:00;;;;;;;16.52;3.45;;;5.30;99.90;;;;;;4979494;28;20046;-47
2022/01/30 01:24:10;;;;;;;20.17;3.65;;;5.00;99.90;;;;;;5000650;28;20153;-47
2022/01/30 01:26:37;;;;;;;23.58;4.35;;;5.00;99.90;;;;;;5000197;28;20057;-47
2022/01/30 01:29:04;;;;;;;19.38;4.63;;;5.00;99.90;;;;;;5000224;28;20044;-47
2022/01/30 01:31:29;;;;;;;24.08;4.55;;;4.90;99.90;;;;;;5000768;28;20458;-47
2022/01/30 01:36:24;;;;;;;24.13;5.07;;;4.90;99.90;;;;;;5000754;28;20520;-48
2022/01/30 01:38:51;;;;;;;26.35;5.45;;;4.90;99.90;;;;;;5002111;28;20049;-50
2022/01/30 01:41:20;;;;;;;23.83;4.43;;;4.90;99.90;;;;;;5001383;28;20160;-48
2022/01/30 01:43:48;;;;;;;20.48;4.43;;;4.90;99.90;;;;;;5003436;28;20064;-50
2022/01/30 01:46:19;;;;;;;30.05;7.00;;;4.90;99.90;;;;;;5003565;28;20157;-48
2022/01/30 01:48:47;;;;;;;29.10;5.18;;;4.90;99.90;;;;;;5005552;28;20135;-47
2022/01/30 01:51:18;;;;;;;27.52;5.78;;;4.90;99.90;;;;;;5002415;28;20550;-47
2022/01/30 01:53:45;;;;;;;28.10;5.82;;;5.00;99.90;;;;;;5003710;28;20050;-47
2022/01/30 01:56:14;;;;;;;38.28;7.75;;;5.00;99.90;;;;;;5003265;28;20084;-50
2022/01/30 01:58:40;;;;;;;23.00;4.65;;;5.00;99.90;;;;;;4994625;28;20054;-47
2022/01/30 02:01:06;;;;;;;28.70;5.60;;;5.00;99.90;;;;;;5000490;28;20058;-47
2022/01/30 02:03:37;;;;;;;27.67;5.80;;;5.10;99.90;;;;;;4995240;28;20493;-47
2022/01/30 02:06:05;;;;;;;28.45;6.78;;;5.10;99.90;;;;;;4973304;28;20500;-47
2022/01/30 02:08:37;;;;;;;38.28;6.55;;;5.10;99.90;;;;;;4995195;28;20393;-47
2022/01/30 02:27:23;;;;;;;20.52;4.75;;;5.30;99.90;;;;;;4941635;29;20061;-47
2022/01/30 02:29:49;;;;;;;27.58;5.40;;;5.30;99.90;;;;;;4942106;29;20059;-47
2022/01/30 02:32:16;;;;;;;22.48;4.50;;;5.30;99.90;;;;;;4942201;28;20083;-47
2022/01/30 02:34:41;;;;;;;24.23;4.70;;;5.20;99.90;;;;;;4935648;29;20066;-47
2022/01/30 02:37:07;;;;;;;16.88;3.78;;;5.20;99.90;;;;;;4926172;29;20051;-47
2022/01/30 02:39:33;;;;;;;22.60;4.22;;;5.20;99.90;;;;;;4941950;29;20134;-47
2022/01/30 02:41:59;;;;;;;23.88;4.65;;;5.20;99.90;;;;;;4943546;29;20074;-47
2022/01/30 02:46:58;;;;;;;29.55;5.20;;;5.20;99.90;;;;;;4938867;29;20060;-47
2022/01/30 02:49:29;;;;;;;25.40;6.13;;;5.20;99.90;;;;;;4938902;29;20624;-49
2022/01/30 02:51:59;;;;;;;28.30;5.38;;;5.20;99.90;;;;;;4944205;29;20134;-49
2022/01/30 02:54:28;;;;;;;33.85;6.43;;;5.20;99.90;;;;;;4944758;29;20047;-47
2022/01/30 02:56:54;;;;;;;25.02;4.65;;;5.20;99.90;;;;;;4929411;29;20422;-49
2022/01/30 02:59:22;;;;;;;25.73;6.35;;;5.20;99.90;;;;;;4922498;29;20047;-48
2022/01/30 03:01:48;;;;;;;32.75;5.15;;;5.20;99.90;;;;;;4942915;29;20051;-47
2022/01/30 03:04:14;;;;;;;33.90;5.63;;;5.20;99.90;;;;;;4958340;28;20057;-47
2022/01/30 03:06:40;;;;;;;43.28;7.35;;;5.20;99.90;;;;;;4984053;28;20061;-47
2022/01/30 03:09:08;;;;;;;41.75;8.00;;;5.20;99.90;;;;;;4984833;28;20047;-47
2022/01/30 03:11:34;;;;;;;35.08;6.03;;;5.20;99.90;;;;;;4989629;28;20046;-47
2022/01/30 03:14:01;;;;;;;35.17;6.32;;;5.10;99.90;;;;;;5001940;28;20070;-47
2022/01/30 03:16:27;;;;;;;35.85;7.13;;;5.10;99.90;;;;;;5002100;28;20074;-49
2022/01/30 03:18:53;;;;;;;51.58;7.40;;;5.00;99.90;;;;;;4994827;28;20061;-47
2022/01/30 03:21:20;;;;;;;34.85;7.90;;;5.00;99.90;;;;;;4993486;28;20046;-47
2022/01/30 03:23:46;;;;;;;41.80;7.13;;;5.00;99.90;;;;;;5000939;28;20492;-47
2022/01/30 03:26:13;;;;;;;36.05;7.63;;;5.00;99.90;;;;;;5002516;28;20095;-48
2022/01/30 03:28:41;;;;;;;43.15;7.75;;;5.00;99.90;;;;;;5001018;28;20085;-48
2022/01/30 03:31:10;;;;;;;34.22;6.20;;;4.90;99.90;;;;;;5002903;28;20050;-48
2022/01/30 03:33:36;;;;;;;35.05;7.03;;;4.90;99.90;;;;;;4995982;28;20099;-48
2022/01/30 03:36:02;;;;;;;33.42;7.28;;;4.80;99.90;;;;;;5001553;28;20053;-48
2022/01/30 03:38:29;;;;;;;36.17;7.80;;;4.80;99.90;;;;;;5000805;28;20060;-48
2022/01/30 03:40:55;;;;;;;43.38;8.88;;;4.90;99.90;;;;;;5001571;28;20130;-47
2022/01/30 03:43:21;;;;;;;41.40;8.07;;;4.90;99.90;;;;;;5000287;28;20500;-47
2022/01/30 03:45:47;;;;;;;42.83;9.45;;;5.00;99.90;;;;;;5002031;28;20045;-47
2022/01/30 03:48:14;;;;;;;39.33;7.00;;;5.10;99.90;;;;;;5002008;28;20053;-47
2022/01/30 03:50:40;;;;;;;41.88;8.00;;;5.20;99.90;;;;;;5000299;28;20065;-47
2022/01/30 03:53:07;;;;;;;28.25;6.47;;;5.20;99.90;;;;;;5002129;28;20049;-47
2022/01/30 03:55:32;;;;;;;32.90;7.07;;;5.30;99.90;;;;;;4995171;28;20049;-48
2022/01/30 03:57:59;;;;;;;38.20;6.88;;;5.20;99.90;;;;;;4999658;28;20057;-47
2022/01/30 04:00:25;;;;;;;28.15;5.88;;;5.20;99.90;;;;;;5001618;28;20045;-47
2022/01/30 04:02:50;;;;;;;36.47;8.05;;;5.10;99.90;;;;;;5003106;28;20625;-47
2022/01/30 04:05:17;;;;;;;45.20;7.47;;;5.10;99.90;;;;;;5005388;28;20088;-47
2022/01/30 04:07:45;;;;;;;47.83;8.10;;;5.00;99.90;;;;;;4999809;28;20050;-55
2022/01/30 04:10:12;;;;;;;34.47;7.50;;;5.00;99.90;;;;;;4997282;28;20492;-48
2022/01/30 04:12:38;;;;;;;37.08;7.03;;;4.90;99.90;;;;;;5002359;28;20058;-47
2022/01/30 04:15:04;;;;;;;41.75;8.27;;;4.90;99.90;;;;;;5001878;28;20057;-47
2022/01/30 04:17:30;;;;;;;45.95;8.65;;;4.90;99.90;;;;;;4993172;28;20054;-48
2022/01/30 04:19:56;;;;;;;34.17;7.13;;;4.90;99.90;;;;;;4990406;28;20061;-48
2022/01/30 04:22:21;;;;;;;42.00;8.85;;;4.90;99.90;;;;;;4998141;28;20489;-49
2022/01/30 04:24:47;;;;;;;40.92;7.57;;;4.90;99.90;;;;;;5001776;28;20057;-47
2022/01/30 04:27:13;;;;;;;35.15;7.70;;;5.00;99.90;;;;;;5000601;28;20060;-47
2022/01/30 04:29:39;;;;;;;39.22;8.48;;;5.00;99.90;;;;;;5001790;28;20050;-48
2022/01/30 04:32:05;;;;;;;42.13;9.00;;;5.00;99.90;;;;;;4989856;28;20038;-47
2022/01/30 04:34:32;;;;;;;43.35;9.43;;;5.00;99.90;;;;;;4992402;28;20058;-50
2022/01/30 04:37:04;;;;;;;32.17;6.93;;;5.00;99.90;;;;;;5000739;28;20054;-48
2022/01/30 04:40:11;;;;;;;40.47;8.20;;;5.00;99.90;;;;;;5001189;28;20085;-47
2022/01/30 04:59:17;;;;;;;32.70;7.30;;;4.80;99.90;;;;;;4907254;29;20515;-47
2022/01/30 05:04:26;;;;;;;35.20;7.55;;;4.70;99.90;;;;;;4917384;29;20051;-49
2022/01/30 05:09:25;;;;;;;27.58;6.90;;;4.60;99.90;;;;;;4904727;29;20459;-48
2022/01/30 05:11:51;;;;;;;29.35;7.65;;;4.60;99.90;;;;;;4912608;29;20473;-47
2022/01/30 05:14:20;;;;;;;30.65;6.57;;;4.60;99.90;;;;;;4914392;29;20363;-47
2022/01/30 05:16:46;;;;;;;40.55;8.15;;;4.60;99.90;;;;;;4918310;29;20055;-48
2022/01/30 05:19:13;;;;;;;40.92;7.25;;;4.60;99.90;;;;;;4882620;29;20079;-47
2022/01/30 05:21:39;;;;;;;38.55;6.85;;;4.50;99.90;;;;;;4901364;29;20060;-49
2022/01/30 05:24:05;;;;;;;33.70;7.05;;;4.40;99.90;;;;;;4919386;29;20139;-48
2022/01/30 05:26:32;;;;;;;43.55;9.63;;;4.40;99.90;;;;;;4921847;29;20060;-47
2022/01/30 05:28:58;;;;;;;43.45;9.05;;;4.40;99.90;;;;;;4920092;29;20048;-47
2022/01/30 05:31:24;;;;;;;48.72;9.57;;;4.30;99.90;;;;;;4918419;29;20055;-47
2022/01/30 05:33:50;;;;;;;32.72;7.70;;;4.40;99.90;;;;;;4986680;28;20054;-47
2022/01/30 05:36:16;;;;;;;44.28;9.63;;;4.30;99.90;;;;;;4994512;28;20564;-47
2022/01/30 05:38:43;;;;;;;43.83;8.05;;;4.40;99.90;;;;;;5005228;28;20049;-48
2022/01/30 05:41:09;;;;;;;40.58;8.02;;;4.30;99.90;;;;;;5004501;28;20049;-47
2022/01/30 05:43:34;;;;;;;47.08;9.80;;;4.30;99.90;;;;;;5003368;28;20041;-47
2022/01/30 05:46:15;;;;;;;36.05;7.90;;;4.30;99.90;;;;;;5002650;28;20049;-47
2022/01/30 05:48:41;;;;;;;47.10;8.23;;;4.30;99.90;;;;;;4989072;28;20058;-47
2022/01/30 05:51:07;;;;;;;38.15;9.23;;;4.30;99.90;;;;;;5001386;28;20451;-48
2022/01/30 05:53:33;;;;;;;50.28;10.57;;;4.30;99.90;;;;;;4997640;28;20430;-48
2022/01/30 05:55:59;;;;;;;39.20;7.97;;;4.30;99.90;;;;;;5001366;28;20060;-48
2022/01/30 05:58:25;;;;;;;35.80;8.27;;;4.30;99.90;;;;;;5004355;28;20046;-47
2022/01/30 06:00:51;;;;;;;43.35;9.45;;;4.30;99.90;;;;;;5004214;28;20054;-47
2022/01/30 06:03:17;;;;;;;40.30;8.00;;;4.30;99.90;;;;;;4998996;28;20064;-48
2022/01/30 06:05:46;;;;;;;47.25;9.68;;;4.30;99.90;;;;;;5000360;28;20181;-48
2022/01/30 06:08:39;;;;;;;48.75;9.02;;;4.40;99.90;;;;;;5003680;28;20061;-47
2022/01/30 06:10:57;;;;;;;51.30;10.85;;;4.50;99.90;;;;;;4999270;28;20053;-47
2022/01/30 06:13:23;;;;;;;40.70;8.23;;;4.50;99.90;;;;;;5003581;28;20050;-48
2022/01/30 06:15:49;;;;;;;37.97;8.32;;;4.50;99.90;;;;;;5001783;28;20245;-47
2022/01/30 06:18:15;;;;;;;43.10;8.95;;;4.40;99.90;;;;;;5004237;28;20540;-47
2022/01/30 06:20:40;;;;;;;66.28;11.50;;;4.40;99.90;;;;;;4995093;28;20062;-47
2022/01/30 06:23:06;;;;;;;39.20;9.25;;;4.40;99.90;;;;;;5003651;28;20040;-46
2022/01/30 06:25:32;;;;;;;41.42;8.45;;;4.40;99.90;;;;;;5001886;28;20501;-47
2022/01/30 06:27:57;;;;;;;43.92;9.80;;;4.40;99.90;;;;;;5004245;28;20084;-48
2022/01/30 06:30:23;;;;;;;39.25;8.00;;;4.50;99.90;;;;;;5006704;28;20464;-47
2022/01/30 06:32:52;;;;;;;47.58;7.80;;;4.50;99.90;;;;;;4997344;28;20051;-50
2022/01/30 06:35:17;;;;;;;38.60;10.00;;;4.60;99.90;;;;;;5002906;28;20068;-47
2022/01/30 06:37:43;;;;;;;45.35;9.45;;;4.60;99.90;;;;;;5002738;28;20057;-48
2022/01/30 06:40:10;;;;;;;47.42;10.85;;;4.60;99.90;;;;;;5004229;28;20470;-47
2022/01/30 06:42:35;;;;;;;39.80;8.60;;;4.60;99.90;;;;;;5003905;28;20045;-47
2022/01/30 06:45:01;;;;;;;54.63;10.57;;;4.60;99.90;;;;;;5000490;28;20054;-48
2022/01/30 06:47:27;;;;;;;37.58;10.20;;;4.70;99.90;;;;;;4991437;28;20058;-47
2022/01/30 06:49:53;;;;;;;50.92;9.38;;;4.70;99.90;;;;;;5001540;28;20049;-48
2022/01/30 06:52:19;;;;;;;40.95;8.90;;;4.80;99.90;;;;;;4992734;28;20093;-46
2022/01/30 06:54:44;;;;;;;42.13;8.88;;;4.90;99.90;;;;;;4999780;28;20463;-47
2022/01/30 06:57:10;;;;;;;38.05;8.25;;;4.90;99.90;;;;;;5001140;28;20048;-47
2022/01/30 06:59:36;;;;;;;43.70;9.48;;;5.00;99.90;;;;;;5003206;28;20559;-47
2022/01/30 07:02:02;;;;;;;36.58;7.22;;;5.00;99.90;;;;;;5002089;28;20412;-47
2022/01/30 07:04:28;;;;;;;40.53;7.72;;;5.10;99.90;;;;;;4999731;28;20472;-47
2022/01/30 07:06:54;;;;;;;48.55;10.48;;;5.10;99.90;;;;;;4995420;28;20060;-47
2022/01/30 07:09:20;;;;;;;42.45;9.07;;;5.10;99.90;;;;;;4988599;28;20473;-47
2022/01/30 07:11:46;;;;;;;42.97;7.93;;;5.10;99.90;;;;;;4999142;28;20069;-47
2022/01/30 07:14:12;;;;;;;39.30;8.50;;;5.00;99.90;;;;;;5002698;28;20050;-47
2022/01/30 07:16:37;;;;;;;48.30;11.00;;;5.10;99.90;;;;;;5002833;28;20057;-47
2022/01/30 07:19:03;;;;;;;39.47;8.52;;;5.10;99.90;;;;;;5002722;28;20524;-48
2022/01/30 07:21:29;;;;;;;44.25;9.10;;;5.10;99.90;;;;;;5003522;28;20161;-49
2022/01/30 07:23:55;;;;;;;44.45;9.95;;;5.20;99.90;;;;;;5002206;28;20092;-47
2022/01/30 07:26:20;;;;;;;37.30;8.50;;;5.10;99.90;;;;;;5002719;28;20538;-47
2022/01/30 07:28:46;;;;;;;37.15;8.13;;;5.10;99.90;;;;;;5000906;28;20054;-47
2022/01/30 07:31:12;;;;;;;35.58;8.00;;;5.10;99.90;;;;;;5001668;28;20054;-50
2022/01/30 07:33:40;;;;;;;40.00;8.32;;;5.10;99.90;;;;;;4992820;28;20111;-47
2022/01/30 07:36:07;;;;;;;31.00;8.63;;;5.10;99.90;;;;;;5003284;28;20104;-48
2022/01/30 07:38:34;;;;;;;38.70;9.90;;;5.10;99.90;;;;;;5002743;28;20606;-48
2022/01/30 07:41:00;;;;;;;43.63;8.95;;;5.00;99.90;;;;;;5005630;28;20463;-48
2022/01/30 07:43:25;;;;;;;44.60;9.23;;;5.10;99.90;;;;;;5004536;28;20053;-48
2022/01/30 07:45:51;;;;;;;43.97;8.32;;;5.10;99.90;;;;;;5003713;28;20050;-55
2022/01/30 07:48:18;;;;;;;46.70;9.73;;;5.10;99.90;;;;;;5001124;28;20053;-47
2022/01/30 07:50:44;;;;;;;50.28;8.98;;;5.10;99.90;;;;;;5002085;28;20049;-47
2022/01/30 07:53:10;;;;;;;39.58;8.20;;;5.10;99.90;;;;;;5002571;28;20061;-48
2022/01/30 07:55:35;;;;;;;44.95;9.70;;;5.10;99.90;;;;;;5001005;28;20064;-50
2022/01/30 07:58:01;;;;;;;55.42;9.55;;;5.10;99.90;;;;;;5000780;28;20410;-49
2022/01/30 08:00:27;;;;;;;34.50;7.93;;;5.10;99.90;;;;;;5001079;28;20171;-46
2022/01/30 08:02:53;;;;;;;49.97;8.55;;;5.20;99.90;;;;;;4998415;28;20052;-47
2022/01/30 08:05:19;;;;;;;44.92;10.27;;;5.10;99.90;;;;;;4982774;28;20116;-47
2022/01/30 08:07:45;;;;;;;49.45;11.18;;;5.20;99.90;;;;;;4997533;28;20053;-47
2022/01/30 08:10:10;;;;;;;49.50;9.50;;;5.20;99.90;;;;;;4996437;28;20053;-47
2022/01/30 08:12:38;;;;;;;50.17;10.40;;;5.20;99.90;;;;;;4998842;28;20401;-48
2022/01/30 08:15:04;;;;;;;48.47;9.05;;;5.30;99.90;;;;;;5000077;28;20153;-47
2022/01/30 08:17:32;;;;;;;47.05;9.23;;;5.30;99.90;;;;;;4998779;28;20065;-49
2022/01/30 08:19:58;;;;;;;47.72;8.55;;;5.30;99.90;;;;;;4995400;28;20072;-48
2022/01/30 08:22:28;;;;;;;46.72;9.95;;;5.30;99.90;;;;;;5001879;28;20126;-49
2022/01/30 08:24:53;;;;;;;53.30;9.93;;;5.40;99.90;;;;;;5001340;28;20045;-47
2022/01/30 08:27:19;;;;;;;44.20;8.57;;;5.30;99.90;;;;;;5000990;28;20424;-49
2022/01/30 08:29:45;;;;;;;38.78;8.60;;;5.30;99.90;;;;;;5010134;28;20085;-47
2022/01/30 08:32:11;;;;;;;39.55;8.75;;;5.30;99.90;;;;;;4996763;28;20034;-47
2022/01/30 08:34:41;;;;;;;35.15;8.68;;;5.20;99.90;;;;;;4995148;28;20052;-47
2022/01/30 08:37:07;;;;;;;38.30;7.75;;;5.10;99.90;;;;;;4993946;28;20057;-47
2022/01/30 08:39:34;;;;;;;41.88;7.70;;;5.10;99.90;;;;;;5000623;28;20058;-48
2022/01/30 08:42:00;;;;;;;40.63;9.50;;;5.10;99.90;;;;;;5002096;28;20580;-47
2022/01/30 08:44:26;;;;;;;44.95;8.13;;;5.10;99.90;;;;;;5002125;28;20096;-48
2022/01/30 08:46:51;;;;;;;37.83;8.25;;;5.20;99.90;;;;;;5000584;28;20496;-47
2022/01/30 08:49:17;;;;;;;33.25;7.40;;;5.30;99.90;;;;;;5002251;28;20073;-48
2022/01/30 08:51:43;;;;;;;38.08;7.55;;;5.30;99.90;;;;;;5005582;28;20050;-50
2022/01/30 08:54:09;;;;;;;43.00;8.15;;;5.30;99.90;;;;;;5004596;28;20050;-50
2022/01/30 08:56:35;;;;;;;40.63;8.48;;;5.30;99.90;;;;;;5005739;28;20129;-47
2022/01/30 08:59:00;;;;;;;40.22;7.10;;;5.20;99.90;;;;;;5004910;28;20046;-47
2022/01/30 09:01:30;;;;;;;31.17;7.72;;;5.20;99.90;;;;;;5005721;28;20160;-50
2022/01/30 09:03:56;;;;;;;43.13;8.15;;;5.30;99.90;;;;;;4999119;28;20050;-47
2022/01/30 09:06:22;;;;;;;33.45;7.90;;;5.30;99.90;;;;;;5016671;28;20057;-49
2022/01/30 09:08:48;;;;;;;37.85;8.38;;;5.40;99.90;;;;;;4997070;28;20049;-51
2022/01/30 09:11:16;;;;;;;39.22;9.18;;;5.40;99.90;;;;;;4998158;28;20046;-48
2022/01/30 09:13:42;;;;;;;62.35;9.70;;;5.40;99.90;;;;;;5003715;28;20054;-47
2022/01/30 09:16:08;;;;;;;37.03;8.13;;;5.50;99.90;;;;;;5008940;28;20049;-47
2022/01/30 09:18:37;;;;;;;45.58;9.07;;;5.70;99.90;;;;;;5005283;28;20061;-47
2022/01/30 09:21:04;;;;;;;43.92;14.55;;;5.80;99.90;;;;;;5005903;28;20424;-48
2022/01/30 09:23:30;;;;;;;45.67;12.25;;;5.70;99.90;;;;;;5002621;28;20066;-48
2022/01/30 09:26:01;;;;;;;41.67;9.52;;;5.70;99.90;;;;;;4994860;28;20479;-48
2022/01/30 09:28:27;;;;;;;39.03;10.18;;;5.70;99.90;;;;;;5004271;28;20058;-48
2022/01/30 09:30:53;;;;;;;51.22;9.15;;;5.80;99.90;;;;;;5013112;28;20061;-48
2022/01/30 09:33:18;;;;;;;42.70;11.13;;;5.80;99.90;;;;;;5005710;28;20050;-48
2022/01/30 09:35:44;;;;;;;50.22;9.43;;;5.80;99.90;;;;;;5004392;28;20062;-48
2022/01/30 09:38:10;;;;;;;40.60;10.20;;;5.80;99.90;;;;;;4995299;28;20410;-48
2022/01/30 09:40:35;;;;;;;40.58;8.63;;;5.80;99.90;;;;;;4999349;28;20057;-47
2022/01/30 09:43:02;;;;;;;42.88;7.53;;;5.90;99.90;;;;;;4999698;28;20053;-50
2022/01/30 09:45:29;;;;;;;45.65;14.52;;;6.00;99.90;;;;;;5005403;28;20041;-48
2022/01/30 09:47:56;;;;;;;47.38;12.85;;;6.10;99.90;;;;;;5006330;28;20105;-47
2022/01/30 09:50:22;;;;;;;61.17;24.23;;;6.30;99.90;;;;;;5005680;28;20133;-49
2022/01/30 09:52:49;;;;;;;53.22;20.25;;;6.40;99.90;;;;;;5002666;28;20054;-47
2022/01/30 09:55:15;;;;;;;51.42;13.10;;;6.60;99.90;;;;;;4998870;28;20054;-48
2022/01/30 09:57:43;;;;;;;42.17;10.82;;;6.70;99.90;;;;;;4999719;28;20060;-47
2022/01/30 10:00:10;;;;;;;42.78;10.70;;;6.80;99.90;;;;;;5007922;28;20244;-47
2022/01/30 10:02:36;;;;;;;59.50;11.48;;;6.80;99.90;;;;;;4996605;28;20046;-50
2022/01/30 10:05:02;;;;;;;50.40;10.38;;;6.80;99.90;;;;;;4994309;28;20052;-48
2022/01/30 10:07:46;;;;;;;45.58;9.52;;;6.70;99.90;;;;;;4992493;28;20791;-48
2022/01/30 10:10:17;;;;;;;48.72;10.48;;;6.60;99.90;;;;;;4988565;28;20129;-47
2022/01/30 10:13:06;;;;;;;40.88;9.63;;;6.60;99.90;;;;;;4996973;28;20060;-49
2022/01/30 10:15:51;;;;;;;41.40;8.10;;;6.40;99.90;;;;;;4990378;28;20054;-48
2022/01/30 10:18:19;;;;;;;42.05;8.65;;;6.40;99.90;;;;;;4990981;28;20054;-48
2022/01/30 10:20:45;;;;;;;41.13;9.70;;;6.40;99.90;;;;;;4995867;28;20057;-47
2022/01/30 10:23:12;;;;;;;40.47;8.80;;;6.40;99.90;;;;;;5005880;28;20054;-48
2022/01/30 10:25:53;;;;;;;44.85;8.13;;;6.50;99.90;;;;;;4973736;28;20065;-49
2022/01/30 10:28:19;;;;;;;43.25;8.23;;;6.50;99.90;;;;;;5003283;28;20042;-46
2022/01/30 10:30:51;;;;;;;40.92;7.78;;;6.60;99.90;;;;;;5009838;28;20527;-47
2022/01/30 10:33:41;;;;;;;42.70;9.27;;;6.60;99.90;;;;;;5002902;28;20081;-48
2022/01/30 10:36:09;;;;;;;40.60;8.18;;;6.70;99.90;;;;;;4998349;28;20140;-47
2022/01/30 10:38:38;;;;;;;51.97;10.05;;;6.80;99.90;;;;;;4992308;28;20081;-48
2022/01/30 10:41:12;;;;;;;40.28;8.05;;;7.00;99.90;;;;;;5003140;28;20084;-47
2022/01/30 10:43:56;;;;;;;47.95;8.80;;;7.10;99.90;;;;;;5003120;28;20500;-49
2022/01/30 10:46:31;;;;;;;38.33;8.48;;;7.10;99.90;;;;;;5001299;28;20665;-47
2022/01/30 10:48:58;;;;;;;44.20;7.95;;;7.00;99.90;;;;;;5002882;28;20586;-49
2022/01/30 10:51:26;;;;;;;42.25;9.80;;;7.00;99.90;;;;;;5002071;28;20042;-47
2022/01/30 10:53:52;;;;;;;42.80;8.98;;;7.10;99.90;;;;;;5000700;28;20416;-48
2022/01/30 10:56:27;;;;;;;43.75;9.20;;;7.20;99.90;;;;;;5001987;28;20081;-48
2022/01/30 10:59:21;;;;;;;39.00;8.73;;;7.30;99.90;;;;;;4996900;28;20494;-48
2022/01/30 11:01:51;;;;;;;48.13;9.77;;;7.40;99.90;;;;;;5003286;28;20052;-50
2022/01/30 11:04:27;;;;;;;36.10;9.30;;;7.50;99.90;;;;;;4999608;28;20049;-50
2022/01/30 11:06:58;;;;;;;40.95;8.10;;;7.50;99.90;;;;;;5005087;28;20057;-48
2022/01/30 11:09:27;;;;;;;49.55;11.23;;;7.50;99.90;;;;;;4993275;28;20193;-48
2022/01/30 11:12:03;;;;;;;42.60;10.20;;;7.50;99.90;;;;;;4995665;28;20061;-49
2022/01/30 11:17:22;;;;;;;36.85;8.93;;;7.50;99.90;;;;;;4943620;29;20051;-50
2022/01/30 11:19:52;;;;;;;39.22;8.32;;;7.50;99.90;;;;;;4933824;28;20640;-51
2022/01/30 11:22:21;;;;;;;34.33;9.07;;;7.50;99.90;;;;;;4916480;29;20070;-51
2022/01/30 11:24:49;;;;;;;33.95;7.50;;;7.40;99.90;;;;;;4942929;28;20084;-48
2022/01/30 11:27:20;;;;;;;30.65;7.47;;;7.40;99.90;;;;;;4924817;29;20067;-47
2022/01/30 11:29:47;;;;;;;35.53;7.38;;;7.40;99.90;;;;;;4950671;28;20051;-48
2022/01/30 11:32:14;;;;;;;30.80;7.03;;;7.30;99.90;;;;;;4940403;29;20089;-48
2022/01/30 11:34:42;;;;;;;41.00;8.93;;;7.30;99.90;;;;;;4941198;29;20063;-48
2022/01/30 11:37:10;;;;;;;32.10;7.68;;;7.20;99.90;;;;;;4939571;29;20586;-49
2022/01/30 11:39:40;;;;;;;35.00;8.50;;;7.20;99.90;;;;;;4940141;29;20106;-48
2022/01/30 11:42:20;;;;;;;30.08;6.85;;;7.20;99.90;;;;;;4923881;29;20066;-48
2022/01/30 11:44:48;;;;;;;36.88;8.18;;;7.20;99.90;;;;;;4924167;29;20164;-48
2022/01/30 11:47:19;;;;;;;36.60;10.88;;;7.20;99.90;;;;;;4917333;29;20067;-49
2022/01/30 11:50:03;;;;;;;41.45;7.93;;;7.20;99.90;;;;;;4937274;29;20051;-51
2022/01/30 11:52:47;;;;;;;32.80;7.75;;;7.20;99.90;;;;;;4935674;28;20066;-48
2022/01/30 11:55:41;;;;;;;36.22;7.47;;;7.20;99.90;;;;;;4968965;28;20460;-48
2022/01/30 11:58:07;;;;;;;;;;;7.30;99.90;;;;;;4979717;28;20051;-48
2022/01/30 12:00:37;;;;;;;48.42;14.77;;;7.30;99.90;;;;;;4981616;28;19926;-48
2022/01/30 12:03:23;;;;;;;29.58;9.70;;;7.20;99.90;;;;;;4980033;28;20054;-49
2022/01/30 12:05:50;;;;;;;35.35;9.05;;;7.20;99.90;;;;;;4972269;28;20058;-49
2022/01/30 12:08:41;;;;;;;48.95;9.88;;;7.10;99.90;;;;;;4982440;28;20050;-47
2022/01/30 12:11:36;;;;;;;36.63;8.35;;;7.10;99.90;;;;;;4974737;28;20066;-51
2022/01/30 12:14:05;;;;;;;37.53;8.68;;;7.10;99.90;;;;;;4981056;28;20046;-48
2022/01/30 12:16:48;;;;;;;43.55;8.35;;;7.20;99.90;;;;;;4989143;28;20065;-48
2022/01/30 12:19:19;;;;;;;33.75;9.02;;;7.30;99.90;;;;;;4988875;28;20050;-50
2022/01/30 12:21:45;;;;;;;31.95;7.45;;;7.40;99.90;;;;;;4984822;28;20056;-48
2022/01/30 12:24:25;;;;;;;45.53;12.77;;;7.60;99.90;;;;;;4984997;28;20050;-49
2022/01/30 12:27:00;;;;;;;32.88;7.65;;;7.70;99.90;;;;;;4990602;28;20535;-48
2022/01/30 12:29:38;;;;;;;34.60;8.50;;;7.80;99.90;;;;;;5006857;28;20114;-50
2022/01/30 12:32:28;;;;;;;36.95;8.63;;;7.90;99.90;;;;;;4998104;28;20057;-51
2022/01/30 12:34:56;;;;;;;31.20;6.90;;;8.00;99.90;;;;;;5000552;28;20125;-51
2022/01/30 12:37:27;;;;;;;42.80;9.07;;;7.90;99.90;;;;;;5001047;28;20050;-49
2022/01/30 12:39:53;;;;;;;34.10;7.53;;;7.80;99.90;;;;;;4999230;28;20045;-51
2022/01/30 12:42:21;;;;;;;32.90;7.00;;;7.60;99.90;;;;;;4998298;28;20123;-52
2022/01/30 12:44:48;;;;;;;33.03;7.93;;;7.50;99.90;;;;;;4999676;28;20050;-48
2022/01/30 12:47:14;;;;;;;40.28;8.20;;;7.40;99.90;;;;;;5000263;28;20212;-48
2022/01/30 12:49:44;;;;;;;31.30;7.65;;;7.20;99.90;;;;;;4999865;28;20085;-49
2022/01/30 12:52:20;;;;;;;34.55;6.95;;;7.20;99.90;;;;;;4997928;28;20451;-48
2022/01/30 12:54:54;;;;;;;33.88;7.28;;;7.20;99.90;;;;;;4993398;28;20061;-48
2022/01/30 12:57:21;;;;;;;32.38;6.75;;;7.10;99.90;;;;;;4991327;28;20054;-47
2022/01/30 12:59:59;;;;;;;42.13;8.32;;;7.10;99.90;;;;;;4989592;28;20124;-52
2022/01/30 13:02:29;;;;;;;35.53;7.28;;;7.10;99.90;;;;;;4989919;28;20045;-48
2022/01/30 13:04:59;;;;;;;33.03;7.90;;;7.10;99.90;;;;;;5005206;28;20577;-48
2022/01/30 13:07:28;;;;;;;34.30;7.22;;;7.10;99.90;;;;;;4990234;28;20054;-48
2022/01/30 13:10:11;;;;;;;34.72;8.20;;;7.10;99.90;;;;;;4983996;28;20653;-48
2022/01/30 13:12:45;;;;;;;35.28;7.93;;;7.10;99.90;;;;;;4991336;28;20058;-51
2022/01/30 13:17:57;;;;;;;42.95;12.38;;;7.00;99.90;;;;;;5078433;27;1378608;-46
2022/01/30 13:20:28;;;;;;;34.95;10.73;;;7.00;99.90;;;;;;5115681;28;20552;-49
2022/01/30 13:22:56;;;;;;;42.70;8.15;;;6.90;99.90;;;;;;5096795;28;20087;-46
2022/01/30 13:25:22;;;;;;;33.25;9.07;;;6.90;99.90;;;;;;5093776;28;20603;-49
2022/01/30 13:27:52;;;;;;;45.47;8.80;;;6.90;99.90;;;;;;5116669;28;20463;-48
2022/01/30 13:30:29;;;;;;;40.42;9.15;;;7.00;99.90;;;;;;5111523;28;20054;-46
2022/01/30 13:32:55;;;;;;;38.58;8.32;;;7.00;99.90;;;;;;5113811;28;20043;-46
2022/01/30 13:35:24;;;;;;;40.75;9.63;;;7.10;99.90;;;;;;5118895;28;20438;-46
2022/01/30 13:37:51;;;;;;;37.28;7.82;;;7.20;99.90;;;;;;5119236;28;20139;-47
2022/01/30 13:40:28;;;;;;;40.88;7.15;;;7.30;99.90;;;;;;5095600;28;20062;-47
2022/01/30 13:48:07;;;;;;;36.95;6.55;;;7.30;99.90;;;;;;5116198;28;20112;-49
2022/01/30 13:50:36;;;;;;;36.22;7.70;;;7.30;99.90;;;;;;5113341;28;20069;-48
2022/01/30 13:53:24;;;;;;;34.90;7.38;;;7.30;99.90;;;;;;5118238;28;20047;-46
2022/01/30 13:55:57;;;;;;;32.35;7.40;;;7.20;99.90;;;;;;5112348;28;20055;-47
2022/01/30 13:58:47;;;;;;;38.65;8.35;;;7.20;99.90;;;;;;5119055;28;20047;-46
2022/01/30 14:01:22;;;;;;;36.17;7.22;;;7.10;99.90;;;;;;5118242;28;20482;-46
2022/01/30 14:03:49;;;;;;;27.48;7.25;;;7.00;99.90;;;;;;5110424;28;20043;-46
2022/01/30 14:06:26;;;;;;;31.15;7.35;;;7.10;99.90;;;;;;5086254;28;20055;-47
2022/01/30 14:08:56;;;;;;;34.85;8.45;;;7.00;99.90;;;;;;5104673;28;20052;-46
2022/01/30 14:11:29;;;;;;;37.47;8.25;;;7.00;99.90;;;;;;5105253;28;20054;-49